Time;durP1;ratioP1;P1;durP2;ratioP2;P2;SDS_P1;SDS_P2;PMS_P1;PMS_P2;Temp;Humidity;BMP_temperature;BMP_pressure;BME280_temperature;BME280_humidity;BME280_pressure;Samples;Min_cycle;Max_cycle;Signal;HPM_P1;HPM_P2
2023/08/03 00:01:05;;;;;;;2.13;1.00;;;17.50;99.90;;;;;;4162671;28;20041;-69
2023/08/03 00:03:06;;;;;;;3.05;0.85;;;17.40;99.90;;;;;;4149887;28;20034;-69
2023/08/03 00:05:07;;;;;;;2.92;1.10;;;17.40;99.90;;;;;;4168526;28;20030;-70
2023/08/03 00:07:08;;;;;;;3.13;1.00;;;17.40;99.90;;;;;;4168720;28;20033;-70
2023/08/03 00:09:08;;;;;;;1.65;0.80;;;17.40;99.90;;;;;;4168409;28;20510;-70
2023/08/03 00:11:09;;;;;;;2.15;0.80;;;17.30;99.90;;;;;;4167675;28;20033;-69
2023/08/03 00:13:09;;;;;;;4.57;0.95;;;17.30;99.90;;;;;;4167254;28;20108;-71
2023/08/03 00:15:10;;;;;;;3.05;1.00;;;17.30;99.90;;;;;;4164616;28;20578;-72
2023/08/03 00:17:11;;;;;;;4.72;0.90;;;17.30;99.90;;;;;;4158166;28;20493;-71
2023/08/03 00:19:12;;;;;;;3.22;1.00;;;17.20;99.90;;;;;;4149293;28;20038;-71
2023/08/03 00:21:12;;;;;;;6.03;1.02;;;17.20;99.90;;;;;;4156448;28;20060;-70
2023/08/03 00:23:13;;;;;;;3.40;1.25;;;17.20;99.90;;;;;;4166549;28;20053;-70
2023/08/03 00:25:14;;;;;;;3.40;1.08;;;17.20;99.90;;;;;;4168463;28;20034;-71
2023/08/03 00:27:14;;;;;;;2.60;0.85;;;17.20;99.90;;;;;;4167083;28;20133;-71
2023/08/03 00:29:15;;;;;;;4.65;1.40;;;17.20;99.90;;;;;;4172918;28;20090;-71
2023/08/03 00:31:16;;;;;;;2.42;0.90;;;17.20;99.90;;;;;;4166020;28;20037;-70
2023/08/03 00:33:16;;;;;;;1.75;0.70;;;17.10;99.90;;;;;;4168174;28;20438;-70
2023/08/03 00:35:17;;;;;;;3.30;1.08;;;17.00;99.90;;;;;;4168560;28;20029;-71
2023/08/03 00:37:17;;;;;;;3.15;0.88;;;17.00;99.90;;;;;;4166098;28;20063;-70
2023/08/03 00:39:18;;;;;;;3.67;1.20;;;17.00;99.90;;;;;;4171925;28;20501;-70
2023/08/03 00:41:19;;;;;;;3.30;0.82;;;17.00;99.90;;;;;;4171168;28;20026;-64
2023/08/03 00:43:19;;;;;;;2.40;0.85;;;17.00;99.90;;;;;;4171518;28;20265;-64
2023/08/03 00:45:20;;;;;;;3.75;1.08;;;17.00;99.90;;;;;;4163324;28;20052;-64
2023/08/03 00:47:21;;;;;;;4.30;1.00;;;17.00;99.90;;;;;;4170197;28;20033;-64
2023/08/03 00:49:27;;;;;;;3.20;1.10;;;16.90;99.90;;;;;;4163470;28;20094;-64
2023/08/03 00:51:28;;;;;;;4.75;0.93;;;17.00;99.90;;;;;;4169507;28;20079;-64
2023/08/03 00:53:29;;;;;;;1.58;0.82;;;17.00;99.90;;;;;;4169692;28;20094;-64
2023/08/03 00:55:31;;;;;;;3.80;1.08;;;17.00;99.90;;;;;;4159778;28;20450;-64
2023/08/03 00:57:32;;;;;;;1.55;0.65;;;17.00;99.90;;;;;;4148012;28;20038;-66
2023/08/03 00:59:33;;;;;;;1.63;0.75;;;16.90;99.90;;;;;;4153707;28;20030;-65
2023/08/03 01:01:33;;;;;;;2.63;1.08;;;16.90;99.90;;;;;;4162518;28;20144;-65
2023/08/03 01:03:35;;;;;;;2.22;0.80;;;16.90;99.90;;;;;;4148665;28;20037;-65
2023/08/03 01:05:36;;;;;;;1.17;0.70;;;16.90;99.90;;;;;;4150057;28;20045;-64
2023/08/03 01:07:37;;;;;;;2.97;1.08;;;16.90;99.90;;;;;;4162014;28;20804;-64
2023/08/03 01:09:37;;;;;;;2.47;0.80;;;16.90;99.90;;;;;;4166408;28;20040;-64
2023/08/03 01:11:38;;;;;;;1.13;0.68;;;17.00;99.90;;;;;;4152738;28;20042;-64
2023/08/03 01:13:39;;;;;;;1.23;0.70;;;17.00;99.90;;;;;;4173010;28;20052;-64
2023/08/03 01:15:39;;;;;;;2.75;0.80;;;17.00;99.90;;;;;;4165647;28;20048;-64
2023/08/03 01:17:40;;;;;;;2.28;0.63;;;16.90;99.90;;;;;;4171658;28;20068;-64
2023/08/03 01:19:41;;;;;;;1.30;0.50;;;17.00;99.90;;;;;;4155704;28;20661;-64
2023/08/03 01:21:43;;;;;;;1.80;1.08;;;17.00;99.90;;;;;;4166882;28;20345;-64
2023/08/03 01:23:44;;;;;;;3.33;1.13;;;17.00;99.90;;;;;;4170800;28;20116;-64
2023/08/03 01:25:45;;;;;;;3.08;0.80;;;17.00;99.90;;;;;;4164913;28;20304;-64
2023/08/03 01:27:47;;;;;;;2.10;0.68;;;17.00;99.90;;;;;;4151575;28;20476;-64
2023/08/03 01:29:47;;;;;;;4.68;1.17;;;17.00;99.90;;;;;;4153431;28;20042;-63
2023/08/03 01:31:48;;;;;;;3.05;0.88;;;17.00;99.90;;;;;;4171749;28;20047;-64
2023/08/03 01:33:49;;;;;;;3.30;1.00;;;17.00;99.90;;;;;;4170866;28;20049;-64
2023/08/03 01:35:51;;;;;;;1.17;0.70;;;17.00;99.90;;;;;;4152099;28;20054;-64
2023/08/03 01:37:52;;;;;;;6.75;1.35;;;17.10;99.90;;;;;;4173375;28;20063;-64
2023/08/03 01:39:53;;;;;;;1.73;0.82;;;17.10;99.90;;;;;;4165506;28;20048;-64
2023/08/03 01:41:53;;;;;;;1.70;0.80;;;17.10;99.90;;;;;;4168500;28;20044;-64
2023/08/03 01:44:15;;;;;;;2.30;0.98;;;17.10;99.90;;;;;;4174318;28;20033;-64
2023/08/03 01:46:16;;;;;;;4.15;1.17;;;17.10;99.90;;;;;;4137898;28;20046;-64
2023/08/03 01:48:16;;;;;;;7.10;1.42;;;17.10;99.90;;;;;;4154655;28;20096;-64
2023/08/03 01:50:17;;;;;;;2.78;0.93;;;17.10;99.90;;;;;;4149741;28;20538;-66
2023/08/03 01:52:17;;;;;;;4.85;1.30;;;17.10;99.90;;;;;;4140150;28;20026;-65
2023/08/03 01:54:18;;;;;;;4.50;1.10;;;17.10;99.90;;;;;;4150919;28;20042;-64
2023/08/03 01:56:19;;;;;;;8.20;1.55;;;17.10;99.90;;;;;;4151754;28;20439;-65
2023/08/03 01:58:19;;;;;;;5.85;1.50;;;17.20;99.90;;;;;;4152100;28;20088;-65
2023/08/03 02:00:20;;;;;;;2.53;1.13;;;17.10;99.90;;;;;;4154663;28;20038;-65
2023/08/03 02:02:21;;;;;;;4.82;1.23;;;17.20;99.90;;;;;;4134742;28;20038;-64
2023/08/03 02:04:21;;;;;;;5.40;1.17;;;17.20;99.90;;;;;;4149743;28;20033;-65
2023/08/03 02:06:22;;;;;;;2.70;1.25;;;17.10;99.90;;;;;;4146829;28;20148;-65
2023/08/03 02:08:22;;;;;;;6.20;1.63;;;17.10;99.90;;;;;;4132536;28;20058;-65
2023/08/03 02:10:24;;;;;;;4.60;1.35;;;17.20;99.90;;;;;;4154026;28;20092;-64
2023/08/03 02:12:24;;;;;;;6.60;1.40;;;17.20;99.90;;;;;;4156573;28;20041;-64
2023/08/03 02:14:25;;;;;;;3.75;1.30;;;17.10;99.90;;;;;;4123128;28;20490;-64
2023/08/03 02:16:25;;;;;;;5.05;1.35;;;17.10;99.90;;;;;;4147461;28;20046;-64
2023/08/03 02:18:29;;;;;;;4.60;1.23;;;17.20;99.90;;;;;;4131807;28;20041;-64
2023/08/03 02:20:29;;;;;;;6.88;1.40;;;17.20;99.90;;;;;;4135178;28;20037;-64
2023/08/03 02:22:30;;;;;;;7.63;1.40;;;17.20;99.90;;;;;;4151227;28;20494;-64
2023/08/03 02:24:31;;;;;;;3.63;1.45;;;17.20;99.90;;;;;;4135943;28;20044;-64
2023/08/03 02:26:31;;;;;;;4.82;1.20;;;17.20;99.90;;;;;;4149557;28;20034;-65
2023/08/03 02:28:32;;;;;;;3.92;1.17;;;17.20;99.90;;;;;;4156460;28;20049;-64
2023/08/03 02:30:34;;;;;;;4.18;1.63;;;17.20;99.90;;;;;;4153785;28;20498;-67
2023/08/03 02:32:35;;;;;;;6.25;1.27;;;17.20;99.90;;;;;;4135281;28;20284;-65
2023/08/03 02:34:35;;;;;;;6.35;1.52;;;17.20;99.90;;;;;;4135544;28;20038;-64
2023/08/03 02:36:36;;;;;;;4.40;1.40;;;17.20;99.90;;;;;;4149086;28;20133;-64
2023/08/03 02:38:37;;;;;;;8.45;2.00;;;17.20;99.90;;;;;;4132840;28;20083;-64
2023/08/03 02:40:37;;;;;;;7.85;2.10;;;17.20;99.90;;;;;;4155184;28;20038;-64
2023/08/03 02:42:38;;;;;;;6.43;2.17;;;17.10;99.90;;;;;;4153308;28;20439;-64
2023/08/03 02:44:38;;;;;;;4.75;1.63;;;17.10;99.90;;;;;;4161025;28;20029;-64
2023/08/03 02:46:40;;;;;;;7.80;1.90;;;17.10;99.90;;;;;;4164955;28;20030;-64
2023/08/03 02:48:41;;;;;;;5.38;1.98;;;17.10;99.90;;;;;;4169975;28;20076;-64
2023/08/03 02:50:42;;;;;;;4.22;1.60;;;17.10;99.90;;;;;;4149890;28;20042;-64
2023/08/03 02:52:42;;;;;;;6.78;1.63;;;17.10;99.90;;;;;;4149558;28;20137;-64
2023/08/03 02:54:43;;;;;;;10.00;2.00;;;17.00;99.90;;;;;;4166106;28;20485;-65
2023/08/03 02:56:43;;;;;;;6.45;1.83;;;17.00;99.90;;;;;;4170132;28;20072;-64
2023/08/03 02:58:44;;;;;;;5.63;1.40;;;17.00;99.90;;;;;;4169450;28;20497;-64
2023/08/03 03:00:44;;;;;;;4.22;1.65;;;17.10;99.90;;;;;;4150854;28;20037;-71
2023/08/03 03:02:45;;;;;;;7.05;1.60;;;17.10;99.90;;;;;;4166018;28;20124;-71
2023/08/03 03:04:46;;;;;;;6.78;1.63;;;17.10;99.90;;;;;;4168415;28;20061;-71
2023/08/03 03:06:46;;;;;;;7.18;1.90;;;17.00;99.90;;;;;;4162547;28;20110;-71
2023/08/03 03:08:47;;;;;;;11.18;2.40;;;17.00;99.90;;;;;;4170271;28;20037;-71
2023/08/03 03:10:47;;;;;;;7.38;1.70;;;17.00;99.90;;;;;;4147828;28;20037;-70
2023/08/03 03:12:48;;;;;;;5.35;1.65;;;17.00;99.90;;;;;;4170935;28;20037;-71
2023/08/03 03:14:48;;;;;;;6.38;1.83;;;17.00;99.90;;;;;;4170793;28;20501;-71
2023/08/03 03:16:49;;;;;;;6.15;1.90;;;17.00;99.90;;;;;;4167276;28;20037;-70
2023/08/03 03:18:50;;;;;;;7.28;2.00;;;17.00;99.90;;;;;;4168615;28;20044;-71
2023/08/03 03:20:50;;;;;;;7.07;1.95;;;17.00;99.90;;;;;;4150139;28;20062;-71
2023/08/03 03:22:51;;;;;;;4.88;1.30;;;17.00;99.90;;;;;;4169888;28;20520;-71
2023/08/03 03:24:51;;;;;;;4.72;1.35;;;17.00;99.90;;;;;;4165569;28;20044;-71
2023/08/03 03:26:52;;;;;;;3.30;1.50;;;16.90;99.90;;;;;;4166859;28;20729;-71
2023/08/03 03:28:53;;;;;;;5.57;1.30;;;17.00;99.90;;;;;;4168906;28;20049;-70
2023/08/03 03:30:53;;;;;;;6.47;1.75;;;17.00;99.90;;;;;;4165211;28;20522;-70
2023/08/03 03:32:54;;;;;;;3.50;1.30;;;17.00;99.90;;;;;;4168324;28;20115;-71
2023/08/03 03:34:54;;;;;;;7.05;1.55;;;17.00;99.90;;;;;;4162709;28;20540;-70
2023/08/03 03:36:55;;;;;;;6.95;1.95;;;17.00;99.90;;;;;;4164885;28;20116;-71
2023/08/03 03:38:56;;;;;;;7.63;1.90;;;16.90;99.90;;;;;;4152042;28;20041;-71
2023/08/03 03:40:56;;;;;;;5.28;1.80;;;16.90;99.90;;;;;;4171720;28;20037;-70
2023/08/03 03:42:57;;;;;;;8.48;1.98;;;17.00;99.90;;;;;;4165153;28;20036;-70
2023/08/03 03:44:57;;;;;;;5.03;1.40;;;17.00;99.90;;;;;;4170618;28;20040;-70
2023/08/03 03:46:58;;;;;;;3.20;1.17;;;17.00;99.90;;;;;;4162199;28;20096;-70
2023/08/03 03:48:59;;;;;;;3.88;1.27;;;17.00;99.90;;;;;;4167298;28;20486;-71
2023/08/03 03:50:59;;;;;;;6.20;1.55;;;17.00;99.90;;;;;;4168612;28;20438;-70
2023/08/03 03:53:00;;;;;;;4.70;1.50;;;17.10;99.90;;;;;;4163157;28;20033;-70
2023/08/03 03:55:00;;;;;;;3.97;1.52;;;17.10;99.90;;;;;;4170343;28;20036;-71
2023/08/03 03:57:01;;;;;;;5.50;1.25;;;17.00;99.90;;;;;;4165056;28;20082;-71
2023/08/03 03:59:03;;;;;;;6.40;1.25;;;17.10;99.90;;;;;;4154368;28;20044;-71
2023/08/03 04:01:04;;;;;;;2.72;0.90;;;17.00;99.90;;;;;;4167232;28;20128;-71
2023/08/03 04:03:04;;;;;;;4.60;1.10;;;17.10;99.90;;;;;;4149518;28;20037;-71
2023/08/03 04:05:05;;;;;;;4.20;1.10;;;17.10;99.90;;;;;;4163956;28;20055;-71
2023/08/03 04:07:06;;;;;;;2.92;1.10;;;17.10;99.90;;;;;;4161130;28;20041;-71
2023/08/03 04:09:06;;;;;;;4.60;1.17;;;17.10;99.90;;;;;;4147601;28;20507;-70
2023/08/03 04:11:07;;;;;;;3.40;1.15;;;17.10;99.90;;;;;;4170214;28;20477;-70
2023/08/03 04:13:08;;;;;;;5.75;1.00;;;17.10;99.90;;;;;;4175892;28;20120;-71
2023/08/03 04:15:09;;;;;;;4.72;1.40;;;17.10;99.90;;;;;;4175573;28;20451;-71
2023/08/03 04:17:09;;;;;;;5.60;1.27;;;17.10;99.90;;;;;;4175861;28;20040;-71
2023/08/03 04:19:10;;;;;;;4.90;1.42;;;17.20;99.90;;;;;;4174718;28;20087;-71
2023/08/03 04:21:11;;;;;;;2.42;0.95;;;17.10;99.90;;;;;;4181867;28;20513;-64
2023/08/03 04:23:12;;;;;;;3.85;1.35;;;17.20;99.90;;;;;;4161110;28;20545;-64
2023/08/03 04:25:13;;;;;;;3.60;1.10;;;17.10;99.90;;;;;;4147580;28;20064;-64
2023/08/03 04:27:14;;;;;;;6.00;1.13;;;17.20;99.90;;;;;;4150566;28;20084;-65
2023/08/03 04:29:14;;;;;;;5.10;1.25;;;17.20;99.90;;;;;;4147347;28;20041;-65
2023/08/03 04:31:15;;;;;;;4.18;1.10;;;17.10;99.90;;;;;;4155191;28;20096;-64
2023/08/03 04:33:16;;;;;;;3.83;1.10;;;17.20;99.90;;;;;;4152961;28;20030;-64
2023/08/03 04:35:16;;;;;;;2.75;1.08;;;17.20;99.90;;;;;;4148236;28;20437;-64
2023/08/03 04:37:17;;;;;;;7.05;1.67;;;17.20;99.90;;;;;;4147403;28;20521;-64
2023/08/03 04:39:17;;;;;;;3.67;1.50;;;17.20;99.90;;;;;;4151775;28;20026;-64
2023/08/03 04:41:20;;;;;;;4.03;1.30;;;17.10;99.90;;;;;;4149951;28;20025;-64
2023/08/03 04:43:21;;;;;;;4.60;1.08;;;17.10;99.90;;;;;;4153625;28;20033;-64
2023/08/03 04:45:21;;;;;;;5.35;1.50;;;17.10;99.90;;;;;;4165708;28;20047;-64
2023/08/03 04:47:22;;;;;;;2.22;1.02;;;17.10;99.90;;;;;;4160016;28;20037;-64
2023/08/03 04:49:22;;;;;;;3.67;1.20;;;17.20;99.90;;;;;;4170101;28;20029;-63
2023/08/03 04:51:23;;;;;;;5.82;1.08;;;17.10;99.90;;;;;;4168594;28;20022;-64
2023/08/03 04:53:23;;;;;;;6.65;1.45;;;17.10;99.90;;;;;;4174245;28;20036;-64
2023/08/03 04:55:24;;;;;;;4.13;1.15;;;17.10;99.90;;;;;;4152222;28;20489;-64
2023/08/03 04:57:25;;;;;;;3.42;1.20;;;17.10;99.90;;;;;;4170456;28;20109;-64
2023/08/03 04:59:25;;;;;;;5.47;1.67;;;17.10;99.90;;;;;;4155403;28;20064;-64
2023/08/03 05:01:26;;;;;;;5.10;1.20;;;17.10;99.90;;;;;;4174899;28;20029;-64
2023/08/03 05:03:27;;;;;;;2.08;1.13;;;17.10;99.90;;;;;;4170257;28;20147;-64
2023/08/03 05:05:27;;;;;;;2.00;0.88;;;17.10;99.90;;;;;;4167622;28;20121;-64
2023/08/03 05:07:28;;;;;;;5.40;1.50;;;17.10;99.90;;;;;;4158907;28;20022;-63
2023/08/03 05:09:28;;;;;;;3.47;1.13;;;17.20;99.90;;;;;;4169433;28;20032;-64
2023/08/03 05:11:29;;;;;;;4.93;1.13;;;17.10;99.90;;;;;;4166262;28;20033;-64
2023/08/03 05:13:30;;;;;;;3.47;1.20;;;17.10;99.90;;;;;;4170549;28;20029;-64
2023/08/03 05:15:30;;;;;;;2.88;1.35;;;17.20;99.90;;;;;;4172927;28;20041;-63
2023/08/03 05:17:31;;;;;;;1.73;0.65;;;17.20;99.90;;;;;;4149976;28;20058;-64
2023/08/03 05:19:31;;;;;;;3.72;1.33;;;17.10;99.90;;;;;;4167900;28;20037;-64
2023/08/03 05:21:32;;;;;;;5.72;1.00;;;17.20;99.90;;;;;;4165439;28;20384;-64
2023/08/03 05:23:33;;;;;;;2.22;1.10;;;17.20;99.90;;;;;;4165382;28;20094;-63
2023/08/03 05:25:33;;;;;;;3.28;0.80;;;17.20;99.90;;;;;;4149540;28;20030;-63
2023/08/03 05:27:34;;;;;;;3.00;1.10;;;17.20;99.90;;;;;;4169165;28;20172;-64
2023/08/03 05:29:35;;;;;;;3.00;1.20;;;17.20;99.90;;;;;;4170014;28;20037;-64
2023/08/03 05:31:35;;;;;;;1.70;0.90;;;17.20;99.90;;;;;;4156415;28;20049;-71
2023/08/03 05:33:36;;;;;;;3.47;1.10;;;17.20;99.90;;;;;;4170268;28;20044;-70
2023/08/03 05:35:37;;;;;;;2.25;0.88;;;17.20;99.90;;;;;;4153578;28;20112;-70
2023/08/03 05:37:37;;;;;;;3.97;1.05;;;17.30;99.90;;;;;;4151675;28;20081;-71
2023/08/03 05:39:38;;;;;;;4.68;1.08;;;17.30;99.90;;;;;;4165523;28;20021;-70
2023/08/03 05:41:39;;;;;;;5.35;1.27;;;17.30;99.90;;;;;;4166531;28;20520;-70
2023/08/03 05:43:39;;;;;;;4.65;1.02;;;17.30;99.90;;;;;;4166839;28;20139;-70
2023/08/03 05:45:45;;;;;;;3.47;0.90;;;17.30;99.90;;;;;;4165624;28;20034;-71
2023/08/03 05:47:45;;;;;;;2.25;1.00;;;17.30;99.90;;;;;;4167010;28;20199;-71
2023/08/03 05:49:46;;;;;;;3.08;1.38;;;17.40;99.90;;;;;;4165431;28;20167;-70
2023/08/03 05:51:46;;;;;;;1.35;0.73;;;17.30;99.90;;;;;;4164823;28;20038;-71
2023/08/03 05:53:47;;;;;;;3.70;1.00;;;17.30;99.90;;;;;;4162163;28;20061;-71
2023/08/03 05:55:48;;;;;;;4.60;1.05;;;17.30;99.90;;;;;;4164109;28;20484;-70
2023/08/03 05:57:48;;;;;;;3.50;1.13;;;17.20;99.90;;;;;;4167369;28;20041;-71
2023/08/03 05:59:49;;;;;;;1.73;0.80;;;17.20;99.90;;;;;;4164358;28;20037;-69
2023/08/03 06:01:51;;;;;;;2.65;1.13;;;17.10;99.90;;;;;;4158003;28;20123;-69
2023/08/03 06:03:53;;;;;;;3.78;0.95;;;17.10;99.90;;;;;;4169802;28;20047;-69
2023/08/03 06:05:55;;;;;;;1.48;0.88;;;17.00;99.90;;;;;;4165131;28;20047;-68
2023/08/03 06:07:55;;;;;;;4.10;0.98;;;17.10;99.90;;;;;;4167463;28;20532;-69
2023/08/03 06:09:56;;;;;;;2.00;0.80;;;17.00;99.90;;;;;;4167939;28;20029;-69
2023/08/03 06:11:56;;;;;;;4.13;1.00;;;17.00;99.90;;;;;;4147506;28;20033;-69
2023/08/03 06:13:57;;;;;;;10.45;4.72;;;16.90;99.90;;;;;;4167759;28;20032;-70
2023/08/03 06:15:59;;;;;;;2.13;1.30;;;17.00;99.90;;;;;;4165156;28;20556;-70
2023/08/03 06:18:04;;;;;;;2.20;0.88;;;16.90;99.90;;;;;;4170815;28;20041;-70
2023/08/03 06:20:12;;;;;;;2.88;1.20;;;17.00;99.90;;;;;;4168790;28;20042;-70
2023/08/03 06:22:20;;;;;;;2.90;1.02;;;17.00;99.90;;;;;;4171503;28;20469;-70
2023/08/03 06:24:21;;;;;;;4.40;1.00;;;17.00;99.90;;;;;;4149550;28;20564;-69
2023/08/03 06:26:22;;;;;;;3.53;1.05;;;17.00;99.90;;;;;;4164569;28;20029;-69
2023/08/03 06:28:23;;;;;;;2.58;0.95;;;17.00;99.90;;;;;;4163975;28;20490;-69
2023/08/03 06:30:24;;;;;;;4.50;1.00;;;17.00;99.90;;;;;;4163247;28;20033;-69
2023/08/03 06:32:29;;;;;;;2.28;0.70;;;17.00;99.90;;;;;;4160851;28;20091;-69
2023/08/03 06:34:30;;;;;;;2.83;1.02;;;17.00;99.90;;;;;;4166674;28;20053;-70
2023/08/03 06:36:31;;;;;;;2.00;0.70;;;17.00;99.90;;;;;;4159804;28;20036;-70
2023/08/03 06:38:34;;;;;;;2.05;0.90;;;17.10;99.90;;;;;;4166503;28;20033;-70
2023/08/03 06:40:35;;;;;;;3.40;1.00;;;17.10;99.90;;;;;;4168004;28;20057;-63
2023/08/03 06:42:37;;;;;;;2.05;0.80;;;17.10;99.90;;;;;;4167768;28;20029;-65
2023/08/03 06:44:37;;;;;;;4.25;0.88;;;17.10;99.90;;;;;;4171841;28;20032;-65
2023/08/03 06:46:38;;;;;;;1.92;0.70;;;17.10;99.90;;;;;;4168878;28;20915;-65
2023/08/03 06:48:39;;;;;;;1.77;0.93;;;17.10;99.90;;;;;;4143535;28;20042;-65
2023/08/03 06:50:39;;;;;;;2.20;0.40;;;17.10;99.90;;;;;;4162353;28;20813;-64
2023/08/03 06:52:41;;;;;;;1.40;0.65;;;17.10;99.90;;;;;;4146885;28;20085;-65
2023/08/03 06:54:41;;;;;;;1.50;0.80;;;17.10;99.90;;;;;;4171612;28;20046;-65
2023/08/03 06:56:42;;;;;;;1.63;0.82;;;17.10;99.90;;;;;;4167490;28;20036;-65
2023/08/03 06:58:42;;;;;;;0.80;0.52;;;17.20;99.90;;;;;;4168564;28;20033;-65
2023/08/03 07:00:44;;;;;;;2.60;0.70;;;17.20;99.90;;;;;;4167000;28;20033;-65
2023/08/03 07:02:46;;;;;;;2.58;1.00;;;17.20;99.90;;;;;;4172537;28;20041;-65
2023/08/03 07:04:47;;;;;;;1.90;0.80;;;17.20;99.90;;;;;;4169760;28;20037;-65
2023/08/03 07:06:48;;;;;;;2.10;0.85;;;17.10;99.90;;;;;;4165785;28;20044;-65
2023/08/03 07:08:48;;;;;;;1.85;0.75;;;17.20;99.90;;;;;;4172140;28;20041;-65
2023/08/03 07:10:49;;;;;;;5.35;1.35;;;17.20;99.90;;;;;;4161395;28;20056;-65
2023/08/03 07:12:50;;;;;;;3.13;0.77;;;17.20;99.90;;;;;;4166016;28;20044;-66
2023/08/03 07:14:50;;;;;;;2.33;0.77;;;17.20;99.90;;;;;;4169398;28;20033;-65
2023/08/03 07:16:51;;;;;;;1.75;0.93;;;17.20;99.90;;;;;;4159349;28;20029;-67
2023/08/03 07:18:51;;;;;;;3.33;0.98;;;17.20;99.90;;;;;;4169152;28;20757;-66
2023/08/03 07:20:52;;;;;;;1.45;0.80;;;17.20;99.90;;;;;;4163739;28;20069;-65
2023/08/03 07:22:53;;;;;;;1.83;0.60;;;17.20;99.90;;;;;;4166337;28;20088;-65
2023/08/03 07:24:54;;;;;;;4.72;0.85;;;17.20;99.90;;;;;;4154236;28;20053;-64
2023/08/03 07:26:54;;;;;;;2.45;0.90;;;17.20;99.90;;;;;;4166971;28;20029;-65
2023/08/03 07:28:55;;;;;;;1.77;0.77;;;17.20;99.90;;;;;;4145966;28;20395;-65
2023/08/03 07:30:56;;;;;;;2.17;0.85;;;17.20;99.90;;;;;;4161003;28;20033;-64
2023/08/03 07:32:57;;;;;;;3.80;1.00;;;17.20;99.90;;;;;;4171501;28;20199;-65
2023/08/03 07:34:59;;;;;;;2.58;0.85;;;17.20;99.90;;;;;;4168666;28;20056;-64
2023/08/03 07:37:01;;;;;;;1.05;0.70;;;17.30;99.90;;;;;;4164448;28;20129;-64
2023/08/03 07:39:02;;;;;;;3.10;0.80;;;17.30;99.90;;;;;;4165510;28;20033;-65
2023/08/03 07:41:06;;;;;;;2.38;0.77;;;17.30;99.90;;;;;;4167230;28;20051;-64
2023/08/03 07:43:07;;;;;;;1.33;0.82;;;17.40;99.90;;;;;;4167150;28;20423;-64
2023/08/03 07:45:08;;;;;;;2.63;1.17;;;17.40;99.90;;;;;;4153792;28;20044;-66
2023/08/03 07:47:08;;;;;;;3.70;1.25;;;17.40;99.90;;;;;;4166984;28;20029;-64
2023/08/03 07:49:11;;;;;;;;;;;17.40;99.90;;;;;;4164726;28;20231;-65
2023/08/03 07:51:13;;;;;;;5.18;0.75;;;17.40;99.90;;;;;;4164282;28;19912;-69
2023/08/03 07:53:14;;;;;;;4.43;1.20;;;17.40;99.90;;;;;;4166030;28;20063;-70
2023/08/03 07:55:14;;;;;;;3.22;1.42;;;17.50;99.90;;;;;;4160915;28;20397;-70
2023/08/03 07:57:15;;;;;;;2.60;1.02;;;17.40;99.90;;;;;;4162894;28;20045;-70
2023/08/03 07:59:16;;;;;;;1.90;0.88;;;17.50;99.90;;;;;;4163560;28;20608;-69
2023/08/03 08:01:18;;;;;;;3.92;1.20;;;17.50;99.90;;;;;;4162502;28;20095;-69
2023/08/03 08:03:18;;;;;;;2.83;1.00;;;17.50;99.90;;;;;;4163355;28;20045;-70
2023/08/03 08:05:22;;;;;;;4.68;1.45;;;17.50;99.90;;;;;;4165807;28;20036;-69
2023/08/03 08:07:23;;;;;;;2.50;1.08;;;17.50;99.90;;;;;;4160996;28;20037;-69
2023/08/03 08:09:24;;;;;;;5.75;1.20;;;17.50;99.90;;;;;;4163484;28;20045;-69
2023/08/03 08:11:25;;;;;;;3.08;1.08;;;17.50;99.90;;;;;;4163700;28;20048;-69
2023/08/03 08:13:26;;;;;;;3.25;1.40;;;17.50;99.90;;;;;;4164070;28;20040;-69
2023/08/03 08:15:28;;;;;;;3.10;1.08;;;17.50;99.90;;;;;;4167900;28;20579;-70
2023/08/03 08:17:28;;;;;;;3.60;1.02;;;17.50;99.90;;;;;;4163388;28;20452;-69
2023/08/03 08:19:30;;;;;;;2.22;0.98;;;17.60;99.90;;;;;;4161733;28;20037;-70
2023/08/03 08:21:31;;;;;;;4.27;1.17;;;17.60;99.90;;;;;;4165549;28;20038;-70
2023/08/03 08:23:32;;;;;;;3.70;1.17;;;17.60;99.90;;;;;;4161783;28;20033;-70
2023/08/03 08:25:34;;;;;;;2.95;1.15;;;17.60;99.90;;;;;;4164887;28;20511;-70
2023/08/03 08:27:35;;;;;;;3.65;1.10;;;17.60;99.90;;;;;;4161468;28;20111;-69
2023/08/03 08:29:35;;;;;;;2.10;0.85;;;17.60;99.90;;;;;;4164999;28;20068;-70
2023/08/03 08:31:36;;;;;;;4.97;1.42;;;17.60;99.90;;;;;;4154361;28;20034;-70
2023/08/03 08:33:37;;;;;;;5.32;1.45;;;17.60;99.90;;;;;;4144117;28;20037;-69
2023/08/03 08:35:38;;;;;;;3.05;1.30;;;17.70;99.90;;;;;;4159562;28;20103;-69
2023/08/03 08:37:39;;;;;;;3.28;1.10;;;17.60;99.90;;;;;;4136135;28;20029;-69
2023/08/03 08:39:39;;;;;;;2.28;1.02;;;17.60;99.90;;;;;;4156723;28;20030;-69
2023/08/03 08:41:40;;;;;;;4.68;1.35;;;17.70;99.90;;;;;;4163648;28;20025;-69
2023/08/03 08:43:41;;;;;;;4.63;1.55;;;17.70;99.90;;;;;;4163181;28;20033;-70
2023/08/03 08:45:42;;;;;;;6.22;1.60;;;17.70;99.90;;;;;;4161697;28;20033;-70
2023/08/03 08:47:42;;;;;;;2.90;1.00;;;17.80;99.90;;;;;;4149413;28;20066;-70
2023/08/03 08:49:43;;;;;;;2.63;1.23;;;17.70;99.90;;;;;;4143302;28;20025;-69
2023/08/03 08:51:45;;;;;;;3.90;1.27;;;17.80;99.90;;;;;;4162508;28;20033;-69
2023/08/03 08:53:46;;;;;;;2.38;1.20;;;17.80;99.90;;;;;;4143438;28;20076;-70
2023/08/03 08:55:50;;;;;;;9.27;1.30;;;17.80;99.90;;;;;;4142917;28;20034;-69
2023/08/03 08:57:52;;;;;;;4.65;1.70;;;17.80;99.90;;;;;;4162041;28;20064;-69
2023/08/03 09:00:01;;;;;;;2.17;0.82;;;17.90;99.90;;;;;;4163758;28;20116;-69
2023/08/03 09:02:02;;;;;;;4.45;1.17;;;17.80;99.90;;;;;;4152943;28;20033;-69
2023/08/03 09:04:03;;;;;;;3.88;1.30;;;17.90;99.90;;;;;;4146129;28;20434;-69
2023/08/03 09:06:04;;;;;;;3.38;1.17;;;17.90;99.90;;;;;;4144353;28;20072;-69
2023/08/03 09:08:16;;;;;;;3.42;1.17;;;17.90;99.90;;;;;;4162207;28;20036;-69
2023/08/03 09:10:17;;;;;;;5.60;1.00;;;18.00;99.90;;;;;;4159684;28;20159;-69
2023/08/03 09:12:27;;;;;;;7.30;1.42;;;17.90;99.90;;;;;;4145653;28;20497;-70
2023/08/03 09:14:28;;;;;;;5.13;1.40;;;18.00;99.90;;;;;;4105287;28;20032;-69
2023/08/03 09:16:29;;;;;;;2.90;1.00;;;17.90;99.90;;;;;;4098931;28;20433;-70
2023/08/03 09:18:32;;;;;;;5.10;1.27;;;18.00;99.90;;;;;;4126284;28;20099;-70
2023/08/03 09:20:33;;;;;;;2.45;1.10;;;17.90;99.90;;;;;;4158029;28;20036;-69
2023/08/03 09:22:43;;;;;;;5.15;1.30;;;18.00;99.90;;;;;;4155987;28;20033;-70
2023/08/03 09:24:46;;;;;;;5.05;1.55;;;18.00;99.90;;;;;;4151705;28;20447;-69
2023/08/03 09:26:47;;;;;;;4.78;0.98;;;17.90;99.90;;;;;;4147885;28;20110;-70
2023/08/03 09:28:48;;;;;;;2.00;1.10;;;17.90;99.90;;;;;;4156351;28;20498;-69
2023/08/03 09:30:52;;;;;;;3.03;1.10;;;17.90;99.90;;;;;;4073087;28;20030;-70
2023/08/03 09:32:52;;;;;;;4.05;1.20;;;18.00;99.90;;;;;;4126322;28;20045;-70
2023/08/03 09:34:55;;;;;;;3.17;0.90;;;18.00;99.90;;;;;;4079566;28;20025;-70
2023/08/03 09:36:55;;;;;;;4.32;1.00;;;18.00;99.90;;;;;;4109879;28;20037;-69
2023/08/03 09:39:15;;;;;;;2.35;1.00;;;18.00;99.90;;;;;;4119545;28;20032;-69
2023/08/03 09:41:32;;;;;;;4.32;1.10;;;18.00;99.90;;;;;;4132738;28;20052;-68
2023/08/03 09:43:34;;;;;;;2.75;0.80;;;18.00;99.90;;;;;;4170841;28;20374;-69
2023/08/03 09:45:37;;;;;;;4.60;1.37;;;18.00;99.90;;;;;;4169928;28;20115;-69
2023/08/03 09:47:40;;;;;;;3.60;0.93;;;18.00;99.90;;;;;;4168589;28;20787;-69
2023/08/03 09:49:41;;;;;;;1.88;0.90;;;18.00;99.90;;;;;;4172920;28;20028;-70
2023/08/03 09:51:44;;;;;;;3.20;0.82;;;17.90;99.90;;;;;;4172338;28;20435;-69
2023/08/03 09:53:49;;;;;;;2.75;1.20;;;17.90;99.90;;;;;;4173489;28;20182;-70
2023/08/03 09:56:01;;;;;;;3.55;1.10;;;18.00;99.90;;;;;;4165895;28;20060;-69
2023/08/03 09:58:12;;;;;;;4.32;0.98;;;18.00;99.90;;;;;;4176594;28;20025;-69
2023/08/03 10:00:15;;;;;;;6.03;1.17;;;18.00;99.90;;;;;;4168285;28;20037;-69
2023/08/03 10:02:19;;;;;;;2.10;0.80;;;18.00;99.90;;;;;;4170699;28;20033;-69
2023/08/03 10:04:23;;;;;;;4.35;1.17;;;18.00;99.90;;;;;;4171893;28;20072;-69
2023/08/03 10:06:27;;;;;;;4.25;1.20;;;18.00;99.90;;;;;;4168681;28;20375;-69
2023/08/03 10:08:38;;;;;;;3.83;1.15;;;18.00;99.90;;;;;;4149773;28;20034;-69
2023/08/03 10:10:45;;;;;;;2.40;1.00;;;18.00;99.90;;;;;;4154706;28;20041;-69
2023/08/03 10:12:55;;;;;;;2.80;1.10;;;18.00;99.90;;;;;;4165696;28;20114;-64
2023/08/03 10:14:58;;;;;;;2.55;0.90;;;18.10;99.90;;;;;;4167889;28;20025;-63
2023/08/03 10:17:04;;;;;;;2.13;0.88;;;18.00;99.90;;;;;;4165788;28;20026;-63
2023/08/03 10:19:06;;;;;;;2.63;0.90;;;18.00;99.90;;;;;;4156057;28;21870;-63
2023/08/03 10:21:09;;;;;;;8.45;1.30;;;18.00;99.90;;;;;;4153604;28;20493;-62
2023/08/03 10:23:15;;;;;;;1.58;0.98;;;18.00;99.90;;;;;;4146287;28;20473;-63
2023/08/03 10:25:19;;;;;;;4.32;1.05;;;18.00;99.90;;;;;;4125233;28;20033;-63
2023/08/03 10:27:21;;;;;;;2.38;1.00;;;18.10;99.90;;;;;;4152635;28;20030;-63
2023/08/03 10:30:00;;;;;;;1.58;0.90;;;18.10;99.90;;;;;;4149940;28;20037;-62
2023/08/03 10:32:01;;;;;;;2.35;0.80;;;18.10;99.90;;;;;;4106010;28;21561;-63
2023/08/03 10:34:01;;;;;;;3.65;1.15;;;18.10;99.90;;;;;;4106941;28;20045;-62